Miyun, China
Current Conditions -  °F | °C
As of 5:30 AM on Sunday 26 Oct 2014 (Local Time) from ZBAA Reporting Station
Clear Clear  
Wind Chill: 57°   Ceiling: Unl
Heat Index: 57°   Visibility: 6mi
Dew Point: 34°   Wind: 13mph
Humidity: 41%   Direction: 10°N
Pressure: 30.12"   Gusts: NA
Location:  40.37°N, 116.82°E
Report Text: ZBAA 252130Z 01006MPS CAVOK 14/01 Q1020 NOSIG
Loading
Personal Weather Stations






























Interactive Weather Map
Tropical Storm Tracking
New forecast layout! Learn more

10-Day Weather Forecast

Advertisements
Track Severe Weather on mobile